sensor_id;sensor_type;location;lat;lon;timestamp;pressure;altitude;pressure_sealevel;temperature
79089;BMP280;68489;50.286;9.452;2024-01-15T00:00:13;95855.84;;;-3.39
79089;BMP280;68489;50.286;9.452;2024-01-15T00:02:38;95856.25;;;-3.40
79089;BMP280;68489;50.286;9.452;2024-01-15T00:05:04;95842.88;;;-3.46
79089;BMP280;68489;50.286;9.452;2024-01-15T00:07:30;95832.13;;;-3.48
79089;BMP280;68489;50.286;9.452;2024-01-15T00:09:55;95838.03;;;-3.44
79089;BMP280;68489;50.286;9.452;2024-01-15T00:12:20;95823.56;;;-3.45
79089;BMP280;68489;50.286;9.452;2024-01-15T00:14:46;95823.59;;;-3.48
79089;BMP280;68489;50.286;9.452;2024-01-15T00:17:11;95821.34;;;-3.43
79089;BMP280;68489;50.286;9.452;2024-01-15T00:19:36;95806.50;;;-3.46
79089;BMP280;68489;50.286;9.452;2024-01-15T00:22:02;95805.41;;;-3.48
79089;BMP280;68489;50.286;9.452;2024-01-15T00:24:27;95813.19;;;-3.52
79089;BMP280;68489;50.286;9.452;2024-01-15T00:26:53;95811.34;;;-3.48
79089;BMP280;68489;50.286;9.452;2024-01-15T00:29:18;95806.13;;;-3.52
79089;BMP280;68489;50.286;9.452;2024-01-15T00:31:44;95795.38;;;-3.50
79089;BMP280;68489;50.286;9.452;2024-01-15T00:34:09;95805.78;;;-3.46
79089;BMP280;68489;50.286;9.452;2024-01-15T00:36:35;95803.19;;;-3.46
79089;BMP280;68489;50.286;9.452;2024-01-15T00:39:00;95792.41;;;-3.45
79089;BMP280;68489;50.286;9.452;2024-01-15T00:41:26;95784.22;;;-3.47
79089;BMP280;68489;50.286;9.452;2024-01-15T00:43:52;95790.19;;;-3.46
79089;BMP280;68489;50.286;9.452;2024-01-15T00:46:18;95780.53;;;-3.46
79089;BMP280;68489;50.286;9.452;2024-01-15T00:48:43;95779.78;;;-3.50
79089;BMP280;68489;50.286;9.452;2024-01-15T00:51:08;95783.50;;;-3.51
79089;BMP280;68489;50.286;9.452;2024-01-15T00:53:34;95791.28;;;-3.40
79089;BMP280;68489;50.286;9.452;2024-01-15T00:55:59;95789.81;;;-3.52
79089;BMP280;68489;50.286;9.452;2024-01-15T00:58:26;95786.47;;;-3.42
79089;BMP280;68489;50.286;9.452;2024-01-15T01:00:51;95777.94;;;-3.49
79089;BMP280;68489;50.286;9.452;2024-01-15T01:03:17;95779.81;;;-3.46
79089;BMP280;68489;50.286;9.452;2024-01-15T01:05:42;95789.09;;;-3.49
79089;BMP280;68489;50.286;9.452;2024-01-15T01:08:09;95784.97;;;-3.50
79089;BMP280;68489;50.286;9.452;2024-01-15T01:10:34;95787.19;;;-3.56
79089;BMP280;68489;50.286;9.452;2024-01-15T01:13:00;95790.16;;;-3.54
79089;BMP280;68489;50.286;9.452;2024-01-15T01:15:25;95787.94;;;-3.55
79089;BMP280;68489;50.286;9.452;2024-01-15T01:17:51;95792.38;;;-3.56
79089;BMP280;68489;50.286;9.452;2024-01-15T01:20:16;95792.38;;;-3.56
79089;BMP280;68489;50.286;9.452;2024-01-15T01:22:42;95779.78;;;-3.57
79089;BMP280;68489;50.286;9.452;2024-01-15T01:25:07;95789.41;;;-3.58
79089;BMP280;68489;50.286;9.452;2024-01-15T01:27:33;95782.72;;;-3.55
79089;BMP280;68489;50.286;9.452;2024-01-15T01:29:58;95773.44;;;-3.53
79089;BMP280;68489;50.286;9.452;2024-01-15T01:32:23;95777.19;;;-3.50
79089;BMP280;68489;50.286;9.452;2024-01-15T01:34:49;95776.84;;;-3.48
79089;BMP280;68489;50.286;9.452;2024-01-15T01:37:14;95776.81;;;-3.52
79089;BMP280;68489;50.286;9.452;2024-01-15T01:39:41;95772.00;;;-3.46
79089;BMP280;68489;50.286;9.452;2024-01-15T01:42:06;95776.06;;;-3.45
79089;BMP280;68489;50.286;9.452;2024-01-15T01:44:32;95776.47;;;-3.50
79089;BMP280;68489;50.286;9.452;2024-01-15T01:46:59;95780.53;;;-3.46
79089;BMP280;68489;50.286;9.452;2024-01-15T01:49:25;95778.69;;;-3.49
79089;BMP280;68489;50.286;9.452;2024-01-15T01:51:51;95774.59;;;-3.46
79089;BMP280;68489;50.286;9.452;2024-01-15T01:54:17;95760.09;;;-3.44
79089;BMP280;68489;50.286;9.452;2024-01-15T01:56:43;95762.69;;;-3.44
79089;BMP280;68489;50.286;9.452;2024-01-15T01:59:10;95755.66;;;-3.47
79089;BMP280;68489;50.286;9.452;2024-01-15T02:01:36;95753.81;;;-3.46
79089;BMP280;68489;50.286;9.452;2024-01-15T02:04:03;95751.19;;;-3.39
79089;BMP280;68489;50.286;9.452;2024-01-15T02:06:28;95760.13;;;-3.40
79089;BMP280;68489;50.286;9.452;2024-01-15T02:08:55;95753.81;;;-3.46
79089;BMP280;68489;50.286;9.452;2024-01-15T02:11:20;95747.13;;;-3.40
79089;BMP280;68489;50.286;9.452;2024-01-15T02:13:46;95757.88;;;-3.35
79089;BMP280;68489;50.286;9.452;2024-01-15T02:16:11;95748.59;;;-3.39
79089;BMP280;68489;50.286;9.452;2024-01-15T02:18:43;95751.94;;;-3.32
79089;BMP280;68489;50.286;9.452;2024-01-15T02:21:09;95740.44;;;-3.34
79089;BMP280;68489;50.286;9.452;2024-01-15T02:23:36;95750.44;;;-3.33
79089;BMP280;68489;50.286;9.452;2024-01-15T02:26:01;95741.91;;;-3.29
79089;BMP280;68489;50.286;9.452;2024-01-15T02:28:26;95735.94;;;-3.26
79089;BMP280;68489;50.286;9.452;2024-01-15T02:30:52;95730.41;;;-3.21
79089;BMP280;68489;50.286;9.452;2024-01-15T02:33:17;95739.28;;;-3.26
79089;BMP280;68489;50.286;9.452;2024-01-15T02:35:43;95736.69;;;-3.22
79089;BMP280;68489;50.286;9.452;2024-01-15T02:38:08;95738.19;;;-3.28
79089;BMP280;68489;50.286;9.452;2024-01-15T02:40:34;95740.03;;;-3.18
79089;BMP280;68489;50.286;9.452;2024-01-15T02:43:00;95747.84;;;-3.18
79089;BMP280;68489;50.286;9.452;2024-01-15T02:45:25;95740.00;;;-3.15
79089;BMP280;68489;50.286;9.452;2024-01-15T02:47:51;95751.94;;;-3.21
79089;BMP280;68489;50.286;9.452;2024-01-15T02:50:16;95740.06;;;-3.25
79089;BMP280;68489;50.286;9.452;2024-01-15T02:52:42;95741.88;;;-3.15
79089;BMP280;68489;50.286;9.452;2024-01-15T02:55:08;95744.88;;;-3.20
79089;BMP280;68489;50.286;9.452;2024-01-15T02:57:33;95745.97;;;-3.18
79089;BMP280;68489;50.286;9.452;2024-01-15T02:59:59;95747.09;;;-3.22
79089;BMP280;68489;50.286;9.452;2024-01-15T03:02:24;95743.75;;;-3.16
79089;BMP280;68489;50.286;9.452;2024-01-15T03:04:49;95748.91;;;-3.12
79089;BMP280;68489;50.286;9.452;2024-01-15T03:07:15;95739.66;;;-3.17
79089;BMP280;68489;50.286;9.452;2024-01-15T03:09:40;95735.94;;;-3.16
79089;BMP280;68489;50.286;9.452;2024-01-15T03:12:06;95736.28;;;-3.14
79089;BMP280;68489;50.286;9.452;2024-01-15T03:14:31;95737.03;;;-3.10
79089;BMP280;68489;50.286;9.452;2024-01-15T03:16:57;95742.59;;;-3.11
79089;BMP280;68489;50.286;9.452;2024-01-15T03:19:22;95738.88;;;-3.06
79089;BMP280;68489;50.286;9.452;2024-01-15T03:21:48;95753.00;;;-3.11
79089;BMP280;68489;50.286;9.452;2024-01-15T03:24:13;95738.53;;;-3.12
79089;BMP280;68489;50.286;9.452;2024-01-15T03:26:39;95751.53;;;-3.12
79089;BMP280;68489;50.286;9.452;2024-01-15T03:29:04;95742.97;;;-3.09
79089;BMP280;68489;50.286;9.452;2024-01-15T03:31:30;95760.06;;;-3.12
79089;BMP280;68489;50.286;9.452;2024-01-15T03:33:56;95759.31;;;-3.19
79089;BMP280;68489;50.286;9.452;2024-01-15T03:36:21;95757.44;;;-3.12
79089;BMP280;68489;50.286;9.452;2024-01-15T03:38:47;95748.53;;;-3.11
79089;BMP280;68489;50.286;9.452;2024-01-15T03:41:12;95749.31;;;-3.17
79089;BMP280;68489;50.286;9.452;2024-01-15T03:43:37;95752.63;;;-3.17
79089;BMP280;68489;50.286;9.452;2024-01-15T03:46:03;95733.34;;;-3.19
79089;BMP280;68489;50.286;9.452;2024-01-15T03:48:29;95747.06;;;-3.12
79089;BMP280;68489;50.286;9.452;2024-01-15T03:50:55;95738.53;;;-3.19
79089;BMP280;68489;50.286;9.452;2024-01-15T03:53:20;95746.31;;;-3.12
79089;BMP280;68489;50.286;9.452;2024-01-15T03:55:45;95752.66;;;-3.13
79089;BMP280;68489;50.286;9.452;2024-01-15T03:58:11;95754.06;;;-3.05
79089;BMP280;68489;50.286;9.452;2024-01-15T04:00:37;95754.06;;;-3.05
79089;BMP280;68489;50.286;9.452;2024-01-15T04:03:02;95751.88;;;-3.14
79089;BMP280;68489;50.286;9.452;2024-01-15T04:05:27;95759.34;;;-3.16
79089;BMP280;68489;50.286;9.452;2024-01-15T04:07:53;95754.47;;;-3.14
79089;BMP280;68489;50.286;9.452;2024-01-15T04:10:18;95753.00;;;-3.07
79089;BMP280;68489;50.286;9.452;2024-01-15T04:12:43;95741.13;;;-3.12
79089;BMP280;68489;50.286;9.452;2024-01-15T04:15:11;95740.00;;;-3.11
79089;BMP280;68489;50.286;9.452;2024-01-15T04:17:37;95734.78;;;-3.11
79089;BMP280;68489;50.286;9.452;2024-01-15T04:20:02;95726.66;;;-3.13
79089;BMP280;68489;50.286;9.452;2024-01-15T04:22:27;95721.03;;;-3.08
79089;BMP280;68489;50.286;9.452;2024-01-15T04:24:53;95719.22;;;-3.07
79089;BMP280;68489;50.286;9.452;2024-01-15T04:27:18;95729.59;;;-3.11
79089;BMP280;68489;50.286;9.452;2024-01-15T04:29:44;95726.63;;;-3.10
79089;BMP280;68489;50.286;9.452;2024-01-15T04:32:10;95721.38;;;-3.02
79089;BMP280;68489;50.286;9.452;2024-01-15T04:34:35;95732.94;;;-3.11
79089;BMP280;68489;50.286;9.452;2024-01-15T04:37:00;95730.34;;;-3.11
79089;BMP280;68489;50.286;9.452;2024-01-15T04:39:26;95731.84;;;-3.17
79089;BMP280;68489;50.286;9.452;2024-01-15T04:41:51;95731.81;;;-3.06
79089;BMP280;68489;50.286;9.452;2024-01-15T04:44:20;95727.75;;;-3.14
79089;BMP280;68489;50.286;9.452;2024-01-15T04:46:45;95733.69;;;-3.06
79089;BMP280;68489;50.286;9.452;2024-01-15T04:49:11;95729.59;;;-3.07
79089;BMP280;68489;50.286;9.452;2024-01-15T04:51:36;95720.69;;;-3.10
79089;BMP280;68489;50.286;9.452;2024-01-15T04:54:02;95723.28;;;-3.06
79089;BMP280;68489;50.286;9.452;2024-01-15T04:56:27;95718.06;;;-3.06
79089;BMP280;68489;50.286;9.452;2024-01-15T04:58:52;95718.06;;;-3.06
79089;BMP280;68489;50.286;9.452;2024-01-15T05:01:18;95708.78;;;-3.04
79089;BMP280;68489;50.286;9.452;2024-01-15T05:03:43;95714.00;;;-3.07
79089;BMP280;68489;50.286;9.452;2024-01-15T05:06:09;95718.44;;;-3.08
79089;BMP280;68489;50.286;9.452;2024-01-15T05:08:34;95716.22;;;-3.06
79089;BMP280;68489;50.286;9.452;2024-01-15T05:10:59;95708.41;;;-2.99
79089;BMP280;68489;50.286;9.452;2024-01-15T05:13:25;95713.97;;;-3.04
79089;BMP280;68489;50.286;9.452;2024-01-15T05:15:50;95706.91;;;-3.03
79089;BMP280;68489;50.286;9.452;2024-01-15T05:18:16;95702.50;;;-3.10
79089;BMP280;68489;50.286;9.452;2024-01-15T05:20:41;95701.34;;;-3.02
79089;BMP280;68489;50.286;9.452;2024-01-15T05:23:07;95688.34;;;-3.05
79089;BMP280;68489;50.286;9.452;2024-01-15T05:25:32;95695.06;;;-3.12
79089;BMP280;68489;50.286;9.452;2024-01-15T05:27:58;95701.41;;;-3.13
79089;BMP280;68489;50.286;9.452;2024-01-15T05:30:23;95697.66;;;-3.04
79089;BMP280;68489;50.286;9.452;2024-01-15T05:32:48;95700.63;;;-3.06
79089;BMP280;68489;50.286;9.452;2024-01-15T05:35:14;95703.94;;;-3.02
79089;BMP280;68489;50.286;9.452;2024-01-15T05:37:44;95696.88;;;-2.98
79089;BMP280;68489;50.286;9.452;2024-01-15T05:40:11;95700.59;;;-3.02
79089;BMP280;68489;50.286;9.452;2024-01-15T05:42:36;95691.69;;;-3.05
79089;BMP280;68489;50.286;9.452;2024-01-15T05:45:01;95682.75;;;-3.00
79089;BMP280;68489;50.286;9.452;2024-01-15T05:47:29;95696.13;;;-2.95
79089;BMP280;68489;50.286;9.452;2024-01-15T05:49:55;95687.97;;;-3.00
79089;BMP280;68489;50.286;9.452;2024-01-15T05:52:21;95686.88;;;-2.96
79089;BMP280;68489;50.286;9.452;2024-01-15T05:54:47;95690.94;;;-2.98
79089;BMP280;68489;50.286;9.452;2024-01-15T05:57:12;95693.53;;;-2.98
79089;BMP280;68489;50.286;9.452;2024-01-15T05:59:37;95692.78;;;-2.99
79089;BMP280;68489;50.286;9.452;2024-01-15T06:02:03;95701.72;;;-2.96
79089;BMP280;68489;50.286;9.452;2024-01-15T06:04:28;95695.41;;;-2.99
79089;BMP280;68489;50.286;9.452;2024-01-15T06:06:54;95701.34;;;-2.98
79089;BMP280;68489;50.286;9.452;2024-01-15T06:09:19;95692.81;;;-2.95
79089;BMP280;68489;50.286;9.452;2024-01-15T06:11:44;95701.72;;;-2.96
79089;BMP280;68489;50.286;9.452;2024-01-15T06:14:10;95713.97;;;-2.93
79089;BMP280;68489;50.286;9.452;2024-01-15T06:16:35;95700.94;;;-2.90
79089;BMP280;68489;50.286;9.452;2024-01-15T06:19:00;95712.47;;;-2.91
79089;BMP280;68489;50.286;9.452;2024-01-15T06:21:25;95707.63;;;-2.92
79089;BMP280;68489;50.286;9.452;2024-01-15T06:23:51;95705.41;;;-2.90
79089;BMP280;68489;50.286;9.452;2024-01-15T06:26:16;95709.09;;;-2.88
79089;BMP280;68489;50.286;9.452;2024-01-15T06:28:41;95701.31;;;-2.91
79089;BMP280;68489;50.286;9.452;2024-01-15T06:31:07;95702.81;;;-2.90
79089;BMP280;68489;50.286;9.452;2024-01-15T06:33:32;95703.88;;;-2.84
79089;BMP280;68489;50.286;9.452;2024-01-15T06:35:57;95699.06;;;-2.85
79089;BMP280;68489;50.286;9.452;2024-01-15T06:38:23;95705.03;;;-2.92
79089;BMP280;68489;50.286;9.452;2024-01-15T06:40:50;95706.16;;;-2.93
79089;BMP280;68489;50.286;9.452;2024-01-15T06:43:17;95699.44;;;-2.87
79089;BMP280;68489;50.286;9.452;2024-01-15T06:45:43;95701.69;;;-2.89
79089;BMP280;68489;50.286;9.452;2024-01-15T06:48:08;95709.88;;;-2.91
79089;BMP280;68489;50.286;9.452;2024-01-15T06:50:34;95711.72;;;-2.91
79089;BMP280;68489;50.286;9.452;2024-01-15T06:52:59;95707.25;;;-2.87
79089;BMP280;68489;50.286;9.452;2024-01-15T06:55:24;95699.03;;;-2.82
79089;BMP280;68489;50.286;9.452;2024-01-15T06:57:50;95704.28;;;-2.85
79089;BMP280;68489;50.286;9.452;2024-01-15T07:00:16;95700.53;;;-2.84
79089;BMP280;68489;50.286;9.452;2024-01-15T07:02:41;95707.59;;;-2.89
79089;BMP280;68489;50.286;9.452;2024-01-15T07:05:07;95705.75;;;-2.84
79089;BMP280;68489;50.286;9.452;2024-01-15T07:07:32;95709.44;;;-2.82
79089;BMP280;68489;50.286;9.452;2024-01-15T07:09:58;95710.91;;;-2.77
79089;BMP280;68489;50.286;9.452;2024-01-15T07:12:23;95702.34;;;-2.74
79089;BMP280;68489;50.286;9.452;2024-01-15T07:14:49;95698.28;;;-2.79
79089;BMP280;68489;50.286;9.452;2024-01-15T07:17:14;95700.13;;;-2.76
79089;BMP280;68489;50.286;9.452;2024-01-15T07:19:39;95691.59;;;-2.76
79089;BMP280;68489;50.286;9.452;2024-01-15T07:22:04;95695.69;;;-2.79
79089;BMP280;68489;50.286;9.452;2024-01-15T07:24:30;95696.38;;;-2.75
79089;BMP280;68489;50.286;9.452;2024-01-15T07:26:55;95693.06;;;-2.75
79089;BMP280;68489;50.286;9.452;2024-01-15T07:29:20;95685.97;;;-2.68
79089;BMP280;68489;50.286;9.452;2024-01-15T07:31:49;95698.59;;;-2.66
79089;BMP280;68489;50.286;9.452;2024-01-15T07:34:15;95693.78;;;-2.71
79089;BMP280;68489;50.286;9.452;2024-01-15T07:36:40;95699.34;;;-2.66
79089;BMP280;68489;50.286;9.452;2024-01-15T07:39:06;95694.50;;;-2.60
79089;BMP280;68489;50.286;9.452;2024-01-15T07:41:31;95707.50;;;-2.60
79089;BMP280;68489;50.286;9.452;2024-01-15T07:43:57;95704.50;;;-2.55
79089;BMP280;68489;50.286;9.452;2024-01-15T07:46:22;95710.78;;;-2.49
79089;BMP280;68489;50.286;9.452;2024-01-15T07:48:47;95707.78;;;-2.47
79089;BMP280;68489;50.286;9.452;2024-01-15T07:51:13;95715.56;;;-2.44
79089;BMP280;68489;50.286;9.452;2024-01-15T07:53:38;95709.63;;;-2.48
79089;BMP280;68489;50.286;9.452;2024-01-15T07:56:03;95716.63;;;-2.37
79089;BMP280;68489;50.286;9.452;2024-01-15T07:58:29;95722.94;;;-2.35
79089;BMP280;68489;50.286;9.452;2024-01-15T08:00:54;95709.53;;;-2.33
79089;BMP280;68489;50.286;9.452;2024-01-15T08:03:19;95715.47;;;-2.26
79089;BMP280;68489;50.286;9.452;2024-01-15T08:05:44;95705.78;;;-2.25
79089;BMP280;68489;50.286;9.452;2024-01-15T08:08:10;95707.28;;;-2.24
79089;BMP280;68489;50.286;9.452;2024-01-15T08:10:35;95703.91;;;-2.25
79089;BMP280;68489;50.286;9.452;2024-01-15T08:13:00;95697.66;;;-2.34
79089;BMP280;68489;50.286;9.452;2024-01-15T08:15:26;95708.03;;;-2.24
79089;BMP280;68489;50.286;9.452;2024-01-15T08:17:51;95704.31;;;-2.26
79089;BMP280;68489;50.286;9.452;2024-01-15T08:20:16;95698.72;;;-2.25
79089;BMP280;68489;50.286;9.452;2024-01-15T08:22:41;95691.59;;;-2.13
79089;BMP280;68489;50.286;9.452;2024-01-15T08:25:07;95698.28;;;-2.16
79089;BMP280;68489;50.286;9.452;2024-01-15T08:27:33;95694.97;;;-2.20
79089;BMP280;68489;50.286;9.452;2024-01-15T08:29:59;95689.78;;;-2.24
79089;BMP280;68489;50.286;9.452;2024-01-15T08:32:24;95691.97;;;-2.15
79089;BMP280;68489;50.286;9.452;2024-01-15T08:34:50;95688.66;;;-2.19
79089;BMP280;68489;50.286;9.452;2024-01-15T08:37:17;95700.63;;;-2.32
79089;BMP280;68489;50.286;9.452;2024-01-15T08:39:43;95685.66;;;-2.17
79089;BMP280;68489;50.286;9.452;2024-01-15T08:42:08;95675.97;;;-2.13
79089;BMP280;68489;50.286;9.452;2024-01-15T08:44:33;95690.78;;;-2.07
79089;BMP280;68489;50.286;9.452;2024-01-15T08:46:59;95677.72;;;-2.03
79089;BMP280;68489;50.286;9.452;2024-01-15T08:49:24;95682.13;;;-1.96
79089;BMP280;68489;50.286;9.452;2024-01-15T08:51:50;95680.97;;;-1.92
79089;BMP280;68489;50.286;9.452;2024-01-15T08:54:15;95675.38;;;-1.90
79089;BMP280;68489;50.286;9.452;2024-01-15T08:56:40;95685.53;;;-2.03
79089;BMP280;68489;50.286;9.452;2024-01-15T08:59:06;95691.72;;;-1.86
79089;BMP280;68489;50.286;9.452;2024-01-15T09:01:31;95694.28;;;-1.79
79089;BMP280;68489;50.286;9.452;2024-01-15T09:03:57;95685.69;;;-1.76
79089;BMP280;68489;50.286;9.452;2024-01-15T09:06:23;95688.59;;;-1.70
79089;BMP280;68489;50.286;9.452;2024-01-15T09:08:48;95695.69;;;-1.71
79089;BMP280;68489;50.286;9.452;2024-01-15T09:11:13;95697.56;;;-1.71
79089;BMP280;68489;50.286;9.452;2024-01-15T09:13:38;95695.75;;;-1.78
79089;BMP280;68489;50.286;9.452;2024-01-15T09:16:05;95694.09;;;-1.61
79089;BMP280;68489;50.286;9.452;2024-01-15T09:18:30;95691.53;;;-1.65
79089;BMP280;68489;50.286;9.452;2024-01-15T09:20:59;95692.25;;;-1.64
79089;BMP280;68489;50.286;9.452;2024-01-15T09:23:24;95691.00;;;-1.52
79089;BMP280;68489;50.286;9.452;2024-01-15T09:25:49;95690.25;;;-1.49
79089;BMP280;68489;50.286;9.452;2024-01-15T09:28:15;95693.50;;;-1.38
79089;BMP280;68489;50.286;9.452;2024-01-15T09:30:40;95701.97;;;-1.27
79089;BMP280;68489;50.286;9.452;2024-01-15T09:33:05;95707.50;;;-1.25
79089;BMP280;68489;50.286;9.452;2024-01-15T09:35:31;95691.97;;;-1.32
79089;BMP280;68489;50.286;9.452;2024-01-15T09:37:56;95692.00;;;-1.39
79089;BMP280;68489;50.286;9.452;2024-01-15T09:40:21;95690.09;;;-1.35
79089;BMP280;68489;50.286;9.452;2024-01-15T09:42:47;95695.69;;;-1.33
79089;BMP280;68489;50.286;9.452;2024-01-15T09:45:13;95694.81;;;-1.23
79089;BMP280;68489;50.286;9.452;2024-01-15T09:47:38;95684.75;;;-1.21
79089;BMP280;68489;50.286;9.452;2024-01-15T09:50:05;95685.00;;;-1.12
79089;BMP280;68489;50.286;9.452;2024-01-15T09:52:31;95679.06;;;-1.12
79089;BMP280;68489;50.286;9.452;2024-01-15T09:54:58;95676.00;;;-1.07
79089;BMP280;68489;50.286;9.452;2024-01-15T09:57:25;95668.09;;;-1.00
79089;BMP280;68489;50.286;9.452;2024-01-15T09:59:51;95660.38;;;-1.07
79089;BMP280;68489;50.286;9.452;2024-01-15T10:02:17;95665.19;;;-1.05
79089;BMP280;68489;50.286;9.452;2024-01-15T10:04:44;95661.34;;;-0.97
79089;BMP280;68489;50.286;9.452;2024-01-15T10:07:14;95661.03;;;-0.99
79089;BMP280;68489;50.286;9.452;2024-01-15T10:09:40;95657.28;;;-0.98
79089;BMP280;68489;50.286;9.452;2024-01-15T10:12:06;95664.25;;;-0.92
79089;BMP280;68489;50.286;9.452;2024-01-15T10:14:31;95662.47;;;-0.98
79089;BMP280;68489;50.286;9.452;2024-01-15T10:16:57;95651.84;;;-1.11
79089;BMP280;68489;50.286;9.452;2024-01-15T10:19:23;95650.31;;;-1.08
79089;BMP280;68489;50.286;9.452;2024-01-15T10:21:48;95665.66;;;-1.14
79089;BMP280;68489;50.286;9.452;2024-01-15T10:24:14;95665.66;;;-1.14
79089;BMP280;68489;50.286;9.452;2024-01-15T10:26:39;95654.75;;;-1.05
79089;BMP280;68489;50.286;9.452;2024-01-15T10:29:04;95662.13;;;-1.00
79089;BMP280;68489;50.286;9.452;2024-01-15T10:31:30;95648.84;;;-1.09
79089;BMP280;68489;50.286;9.452;2024-01-15T10:34:09;95653.97;;;-1.02
79089;BMP280;68489;50.286;9.452;2024-01-15T10:36:35;95648.06;;;-1.06
79089;BMP280;68489;50.286;9.452;2024-01-15T10:39:00;95648.84;;;-1.09
79089;BMP280;68489;50.286;9.452;2024-01-15T10:41:25;95635.38;;;-1.04
79089;BMP280;68489;50.286;9.452;2024-01-15T10:43:51;95637.09;;;-0.94
79089;BMP280;68489;50.286;9.452;2024-01-15T10:46:16;95622.97;;;-0.97
79089;BMP280;68489;50.286;9.452;2024-01-15T10:48:41;95627.72;;;-0.92
79089;BMP280;68489;50.286;9.452;2024-01-15T10:51:07;95614.22;;;-0.83
79089;BMP280;68489;50.286;9.452;2024-01-15T10:53:36;95611.25;;;-0.85
79089;BMP280;68489;50.286;9.452;2024-01-15T10:56:04;95618.59;;;-0.76
79089;BMP280;68489;50.286;9.452;2024-01-15T10:58:31;95602.56;;;-0.78
79089;BMP280;68489;50.286;9.452;2024-01-15T11:00:56;95602.88;;;-0.73
79089;BMP280;68489;50.286;9.452;2024-01-15T11:03:22;95597.13;;;-0.64
79089;BMP280;68489;50.286;9.452;2024-01-15T11:05:47;95596.97;;;-0.53
79089;BMP280;68489;50.286;9.452;2024-01-15T11:08:17;95603.84;;;-0.63
79089;BMP280;68489;50.286;9.452;2024-01-15T11:10:46;95591.19;;;-0.64
79089;BMP280;68489;50.286;9.452;2024-01-15T11:13:14;95578.59;;;-0.70
79089;BMP280;68489;50.286;9.452;2024-01-15T11:16:02;95580.31;;;-0.83
79089;BMP280;68489;50.286;9.452;2024-01-15T11:18:29;95578.88;;;-0.64
79089;BMP280;68489;50.286;9.452;2024-01-15T11:23:57;95570.81;;;-0.73
79089;BMP280;68489;50.286;9.452;2024-01-15T11:28:56;95567.06;;;-0.72
79089;BMP280;68489;50.286;9.452;2024-01-15T11:31:29;95576.44;;;-0.75
79089;BMP280;68489;50.286;9.452;2024-01-15T11:33:54;95563.22;;;-0.64
79089;BMP280;68489;50.286;9.452;2024-01-15T11:41:52;95561.84;;;-0.49
79089;BMP280;68489;50.286;9.452;2024-01-15T11:44:17;95571.41;;;-0.38
79089;BMP280;68489;50.286;9.452;2024-01-15T11:46:59;95561.28;;;-0.36
79089;BMP280;68489;50.286;9.452;2024-01-15T11:50:03;95559.38;;;-0.12
79089;BMP280;68489;50.286;9.452;2024-01-15T11:52:33;95562.25;;;-0.27
79089;BMP280;68489;50.286;9.452;2024-01-15T11:57:50;95557.84;;;-0.10
79089;BMP280;68489;50.286;9.452;2024-01-15T12:00:16;95567.50;;;0.13
79089;BMP280;68489;50.286;9.452;2024-01-15T12:02:44;95554.91;;;0.08
79089;BMP280;68489;50.286;9.452;2024-01-15T12:05:14;95551.16;;;-0.11
79089;BMP280;68489;50.286;9.452;2024-01-15T12:07:43;95555.66;;;0.09
79089;BMP280;68489;50.286;9.452;2024-01-15T12:10:10;95559.53;;;0.20
79089;BMP280;68489;50.286;9.452;2024-01-15T12:13:03;95551.56;;;0.08
79089;BMP280;68489;50.286;9.452;2024-01-15T12:15:30;95553.66;;;0.33
79089;BMP280;68489;50.286;9.452;2024-01-15T12:17:56;95561.97;;;0.48
79089;BMP280;68489;50.286;9.452;2024-01-15T12:20:31;95560.72;;;0.52
79089;BMP280;68489;50.286;9.452;2024-01-15T12:22:57;95554.22;;;0.60
79089;BMP280;68489;50.286;9.452;2024-01-15T12:25:24;95555.44;;;0.56
79089;BMP280;68489;50.286;9.452;2024-01-15T12:27:50;95554.84;;;0.48
79089;BMP280;68489;50.286;9.452;2024-01-15T12:30:16;95550.47;;;0.61
79089;BMP280;68489;50.286;9.452;2024-01-15T12:32:42;95547.44;;;0.63
79089;BMP280;68489;50.286;9.452;2024-01-15T12:35:08;95548.94;;;0.80
79089;BMP280;68489;50.286;9.452;2024-01-15T12:37:37;95548.59;;;0.62
79089;BMP280;68489;50.286;9.452;2024-01-15T12:40:04;95552.59;;;0.66
79089;BMP280;68489;50.286;9.452;2024-01-15T12:42:32;95543.81;;;0.40
79089;BMP280;68489;50.286;9.452;2024-01-15T12:44:58;95548.09;;;0.51
79089;BMP280;68489;50.286;9.452;2024-01-15T12:47:23;95552.53;;;0.34
79089;BMP280;68489;50.286;9.452;2024-01-15T12:49:51;95559.88;;;0.22
79089;BMP280;68489;50.286;9.452;2024-01-15T12:52:19;95559.94;;;-0.01
79089;BMP280;68489;50.286;9.452;2024-01-15T12:54:46;95560.34;;;-0.03
79089;BMP280;68489;50.286;9.452;2024-01-15T12:57:12;95563.63;;;-0.18
79089;BMP280;68489;50.286;9.452;2024-01-15T12:59:37;95561.81;;;-0.21
79089;BMP280;68489;50.286;9.452;2024-01-15T13:02:03;95569.50;;;-0.38
79089;BMP280;68489;50.286;9.452;2024-01-15T13:04:28;95565.72;;;-0.33
79089;BMP280;68489;50.286;9.452;2024-01-15T13:06:54;95566.22;;;-0.42
79089;BMP280;68489;50.286;9.452;2024-01-15T13:09:20;95564.84;;;-0.50
79089;BMP280;68489;50.286;9.452;2024-01-15T13:11:45;95573.75;;;-0.48
79089;BMP280;68489;50.286;9.452;2024-01-15T13:14:12;95573.66;;;-0.64
79089;BMP280;68489;50.286;9.452;2024-01-15T13:16:39;95566.09;;;-0.58
79089;BMP280;68489;50.286;9.452;2024-01-15T13:19:04;95569.66;;;-0.69
79089;BMP280;68489;50.286;9.452;2024-01-15T13:21:31;95569.94;;;-0.63
79089;BMP280;68489;50.286;9.452;2024-01-15T13:23:57;95572.13;;;-0.61
79089;BMP280;68489;50.286;9.452;2024-01-15T13:26:22;95574.00;;;-0.62
79089;BMP280;68489;50.286;9.452;2024-01-15T13:28:47;95575.00;;;-0.56
79089;BMP280;68489;50.286;9.452;2024-01-15T13:31:12;95580.88;;;-0.48
79089;BMP280;68489;50.286;9.452;2024-01-15T13:33:38;95577.81;;;-0.43
79089;BMP280;68489;50.286;9.452;2024-01-15T13:36:04;95575.78;;;-0.55
79089;BMP280;68489;50.286;9.452;2024-01-15T13:38:33;95571.03;;;-0.64
79089;BMP280;68489;50.286;9.452;2024-01-15T13:41:02;95575.44;;;-0.57
79089;BMP280;68489;50.286;9.452;2024-01-15T13:43:27;95581.09;;;-0.62
79089;BMP280;68489;50.286;9.452;2024-01-15T13:45:52;95595.09;;;-0.53
79089;BMP280;68489;50.286;9.452;2024-01-15T13:48:19;95577.75;;;-0.63
79089;BMP280;68489;50.286;9.452;2024-01-15T13:50:44;95605.75;;;-0.67
79089;BMP280;68489;50.286;9.452;2024-01-15T13:53:09;95597.09;;;-0.60
79089;BMP280;68489;50.286;9.452;2024-01-15T13:55:35;95590.81;;;-0.63
79089;BMP280;68489;50.286;9.452;2024-01-15T13:58:00;95600.56;;;-0.43
79089;BMP280;68489;50.286;9.452;2024-01-15T14:00:25;95601.22;;;-0.39
79089;BMP280;68489;50.286;9.452;2024-01-15T14:02:51;95610.72;;;-0.49
79089;BMP280;68489;50.286;9.452;2024-01-15T14:05:16;95601.69;;;-0.45
79089;BMP280;68489;50.286;9.452;2024-01-15T14:07:42;95599.25;;;-0.55
79089;BMP280;68489;50.286;9.452;2024-01-15T14:10:09;95609.50;;;-0.45
79089;BMP280;68489;50.286;9.452;2024-01-15T14:12:35;95611.94;;;-0.30
79089;BMP280;68489;50.286;9.452;2024-01-15T14:15:01;95614.94;;;-0.32